Time;durP1;ratioP1;P1;durP2;ratioP2;P2;SDS_P1;SDS_P2;PMS_P1;PMS_P2;Temp;Humidity;BMP_temperature;BMP_pressure;BME280_temperature;BME280_humidity;BME280_pressure;Samples;Min_cycle;Max_cycle;Signal;HPM_P1;HPM_P2
2021/03/24 00:01:48;;;;;;;53.17;36.77;;;6.40;99.90;;;;;;5006927;28;20233;-54
2021/03/24 00:04:16;;;;;;;54.73;37.70;;;6.40;99.90;;;;;;5007514;28;20509;-51
2021/03/24 00:06:44;;;;;;;52.90;34.83;;;6.40;99.90;;;;;;4991487;28;20332;-52
2021/03/24 00:09:17;;;;;;;55.40;35.97;;;6.40;99.90;;;;;;4987322;28;20296;-51
2021/03/24 00:11:45;;;;;;;59.70;37.93;;;6.80;99.90;;;;;;5000619;28;20918;-50
2021/03/24 00:14:12;;;;;;;57.67;37.03;;;6.70;99.90;;;;;;5006420;28;20703;-52
2021/03/24 00:16:41;;;;;;;58.03;40.03;;;6.70;99.90;;;;;;5007624;28;20291;-51
2021/03/24 00:19:09;;;;;;;62.73;41.07;;;6.60;99.90;;;;;;5006865;28;20248;-53
2021/03/24 00:21:36;;;;;;;59.30;39.47;;;6.50;99.90;;;;;;5007253;28;20709;-51
2021/03/24 00:24:04;;;;;;;65.07;41.17;;;6.50;99.90;;;;;;5006654;28;20249;-52
2021/03/24 00:26:32;;;;;;;57.70;39.77;;;6.60;99.90;;;;;;5010556;28;20324;-53
2021/03/24 00:28:59;;;;;;;56.10;38.47;;;6.60;99.90;;;;;;5010449;28;20460;-51
2021/03/24 00:31:27;;;;;;;62.70;40.20;;;6.70;99.90;;;;;;5008379;28;20473;-50
2021/03/24 00:33:55;;;;;;;58.60;39.43;;;6.60;99.90;;;;;;5009893;28;20252;-51
2021/03/24 00:36:23;;;;;;;65.37;41.53;;;6.60;99.90;;;;;;5011036;28;20480;-53
2021/03/24 00:38:50;;;;;;;60.17;39.97;;;6.60;99.90;;;;;;4990879;28;20238;-55
2021/03/24 00:41:17;;;;;;;64.67;41.17;;;6.60;99.90;;;;;;4990569;28;20321;-55
2021/03/24 00:43:45;;;;;;;67.90;41.77;;;6.50;99.90;;;;;;4990985;28;20256;-54
2021/03/24 00:46:12;;;;;;;64.03;40.47;;;6.40;99.90;;;;;;4990670;28;20722;-53
2021/03/24 00:48:40;;;;;;;60.70;39.33;;;6.50;99.90;;;;;;4990428;28;20234;-53
2021/03/24 00:51:08;;;;;;;57.30;39.43;;;6.60;99.90;;;;;;4990562;28;20601;-52
2021/03/24 00:53:36;;;;;;;60.13;40.37;;;6.60;99.90;;;;;;4985120;28;20473;-52
2021/03/24 00:56:03;;;;;;;59.17;39.03;;;6.80;99.90;;;;;;4979908;28;20272;-53
2021/03/24 00:58:31;;;;;;;57.23;38.57;;;6.80;99.90;;;;;;4983491;28;20284;-50
2021/03/24 01:00:58;;;;;;;57.10;38.23;;;6.70;99.90;;;;;;5001006;28;20241;-54
2021/03/24 01:03:25;;;;;;;64.73;41.57;;;6.80;99.90;;;;;;4990522;28;20310;-52
2021/03/24 01:05:53;;;;;;;55.77;36.77;;;6.70;99.90;;;;;;4990653;28;20659;-53
2021/03/24 01:08:24;;;;;;;67.37;41.40;;;6.70;99.90;;;;;;4990003;28;20430;-51
2021/03/24 01:10:55;;;;;;;66.70;42.43;;;6.70;99.90;;;;;;4989905;28;20238;-53
2021/03/24 01:13:24;;;;;;;55.23;35.47;;;6.70;99.90;;;;;;4990042;28;20644;-55
2021/03/24 01:15:51;;;;;;;61.13;41.47;;;6.80;99.90;;;;;;4998162;28;20287;-52
2021/03/24 01:18:21;;;;;;;56.90;38.03;;;6.90;99.90;;;;;;4997891;28;20297;-54
2021/03/24 01:20:49;;;;;;;62.07;41.07;;;6.90;99.90;;;;;;4999474;28;20261;-54
2021/03/24 01:23:17;;;;;;;58.97;37.53;;;6.80;99.90;;;;;;4990378;28;20567;-51
2021/03/24 01:25:46;;;;;;;66.30;42.80;;;7.00;99.90;;;;;;4990617;28;20273;-52
2021/03/24 01:28:18;;;;;;;55.93;37.50;;;6.90;99.90;;;;;;5008424;28;20299;-52
2021/03/24 01:30:47;;;;;;;59.80;39.80;;;6.80;99.90;;;;;;5007492;28;20644;-51
2021/03/24 01:33:15;;;;;;;66.80;42.03;;;6.90;99.90;;;;;;5006950;28;20739;-52
2021/03/24 01:35:43;;;;;;;68.00;42.10;;;6.80;99.90;;;;;;5009450;28;20251;-52
2021/03/24 01:38:11;;;;;;;66.53;44.00;;;6.80;99.90;;;;;;5009352;28;20245;-53
2021/03/24 01:40:42;;;;;;;57.53;37.87;;;6.80;99.90;;;;;;5008138;28;20261;-53
2021/03/24 01:43:21;;;;;;;69.47;43.47;;;6.80;99.90;;;;;;4989646;28;20316;-50
2021/03/24 01:46:31;;;;;;;69.23;43.73;;;6.80;99.90;;;;;;5000665;28;20679;-52
2021/03/24 01:49:06;;;;;;;64.70;42.33;;;6.70;99.90;;;;;;5008422;28;20233;-53
2021/03/24 01:51:37;;;;;;;62.47;41.47;;;6.70;99.90;;;;;;5007115;28;20295;-54
2021/03/24 01:54:08;;;;;;;62.13;39.10;;;6.90;99.90;;;;;;5007652;28;20618;-53
2021/03/24 01:56:38;;;;;;;66.47;42.93;;;6.90;99.90;;;;;;5002870;28;20225;-53
2021/03/24 01:59:07;;;;;;;63.43;40.00;;;7.00;99.90;;;;;;5006954;28;20241;-54
2021/03/24 02:01:35;;;;;;;64.80;42.43;;;6.90;99.90;;;;;;5001350;28;20659;-52
2021/03/24 02:04:03;;;;;;;61.83;38.83;;;6.90;99.90;;;;;;4989508;28;20709;-53
2021/03/24 02:06:38;;;;;;;63.77;42.20;;;6.90;99.90;;;;;;4989048;28;20734;-51
2021/03/24 02:09:19;;;;;;;66.20;43.70;;;6.80;99.90;;;;;;4988763;28;20233;-50
2021/03/24 02:11:55;;;;;;;70.03;43.90;;;6.80;99.90;;;;;;4996822;28;20251;-55
2021/03/24 02:14:32;;;;;;;68.37;43.90;;;6.80;99.90;;;;;;5008980;28;20291;-54
2021/03/24 02:17:01;;;;;;;73.07;45.80;;;6.80;99.90;;;;;;5008621;28;20233;-51
2021/03/24 02:19:44;;;;;;;67.10;42.70;;;6.90;99.90;;;;;;5008226;28;20268;-52
2021/03/24 02:22:15;;;;;;;58.37;37.20;;;6.80;99.90;;;;;;5003185;28;20249;-52
2021/03/24 02:24:55;;;;;;;72.93;43.20;;;7.10;99.90;;;;;;5007886;28;20229;-53
2021/03/24 02:27:27;;;;;;;70.17;42.40;;;6.90;99.90;;;;;;5007182;28;20255;-51
2021/03/24 02:30:03;;;;;;;60.40;38.27;;;6.90;99.90;;;;;;5007776;28;20265;-52
2021/03/24 02:32:34;;;;;;;70.63;43.70;;;7.10;99.90;;;;;;4994335;28;20352;-52
2021/03/24 02:35:08;;;;;;;67.87;41.97;;;7.10;99.90;;;;;;4988968;28;20248;-51
2021/03/24 02:37:37;;;;;;;61.20;39.83;;;7.10;99.90;;;;;;4989053;28;20565;-54
2021/03/24 02:40:09;;;;;;;69.17;45.23;;;7.00;99.90;;;;;;5002895;28;20312;-52
2021/03/24 02:42:39;;;;;;;64.83;41.17;;;6.90;99.90;;;;;;5002743;28;20237;-52
2021/03/24 02:45:09;;;;;;;65.50;41.17;;;6.90;99.90;;;;;;5007863;28;20240;-51
2021/03/24 02:47:38;;;;;;;68.73;44.77;;;6.80;99.90;;;;;;5008378;28;20650;-52
2021/03/24 02:50:09;;;;;;;61.87;38.97;;;6.90;99.90;;;;;;5004651;28;20643;-51
2021/03/24 02:52:37;;;;;;;68.60;43.50;;;7.00;99.90;;;;;;5004830;28;20295;-55
2021/03/24 02:55:08;;;;;;;67.73;43.33;;;7.10;99.90;;;;;;5008187;28;20252;-52
2021/03/24 02:57:35;;;;;;;56.00;38.03;;;7.10;99.90;;;;;;5004879;28;20324;-52
2021/03/24 03:00:14;;;;;;;57.23;37.13;;;7.10;99.90;;;;;;5007691;28;20260;-54
2021/03/24 03:02:46;;;;;;;65.40;41.27;;;7.30;99.90;;;;;;5007772;28;20295;-52
2021/03/24 03:05:21;;;;;;;59.13;39.40;;;7.20;99.90;;;;;;5008032;28;20244;-53
2021/03/24 03:07:53;;;;;;;70.40;43.83;;;7.30;99.90;;;;;;4991376;28;20289;-53
2021/03/24 03:10:27;;;;;;;57.73;38.07;;;7.30;99.90;;;;;;4972439;28;20274;-50
2021/03/24 03:12:58;;;;;;;64.23;38.67;;;7.30;99.90;;;;;;4969197;28;20293;-53
2021/03/24 03:15:32;;;;;;;54.73;36.80;;;7.40;99.90;;;;;;4983132;28;20242;-52
2021/03/24 03:18:05;;;;;;;63.33;39.70;;;7.50;99.90;;;;;;4986039;28;20261;-52
2021/03/24 03:20:40;;;;;;;60.37;37.50;;;7.50;99.90;;;;;;4986814;28;20562;-51
2021/03/24 03:23:12;;;;;;;58.13;37.23;;;7.50;99.90;;;;;;4973054;28;20242;-52
2021/03/24 03:25:42;;;;;;;57.93;37.67;;;7.60;99.90;;;;;;4981354;28;20233;-52
2021/03/24 03:28:15;;;;;;;55.03;36.47;;;7.50;99.90;;;;;;4986514;28;20340;-53
2021/03/24 03:30:49;;;;;;;59.77;39.63;;;7.50;99.90;;;;;;5002054;28;20303;-54
2021/03/24 03:33:21;;;;;;;52.37;35.20;;;7.60;99.90;;;;;;5007724;28;20264;-50
2021/03/24 03:35:52;;;;;;;57.20;37.87;;;7.60;99.90;;;;;;5007926;28;20237;-52
2021/03/24 03:38:23;;;;;;;58.13;40.97;;;7.70;99.90;;;;;;4968588;28;20242;-54
2021/03/24 03:40:53;;;;;;;54.37;37.23;;;7.50;99.90;;;;;;4968552;28;20242;-50
2021/03/24 03:43:21;;;;;;;62.83;40.10;;;7.50;99.90;;;;;;4969065;28;20712;-53
2021/03/24 03:45:53;;;;;;;67.30;41.97;;;7.40;99.90;;;;;;4981380;28;20705;-51
2021/03/24 03:48:21;;;;;;;59.30;39.53;;;7.30;99.90;;;;;;5000577;28;20238;-51
2021/03/24 03:51:02;;;;;;;63.03;42.37;;;7.40;99.90;;;;;;4985014;28;20234;-53
2021/03/24 03:53:37;;;;;;;60.33;38.13;;;7.30;99.90;;;;;;4998271;28;20304;-50
2021/03/24 03:56:11;;;;;;;61.57;39.90;;;7.30;99.90;;;;;;4987953;28;20248;-51
2021/03/24 03:58:46;;;;;;;61.73;41.60;;;7.40;99.90;;;;;;4990578;28;20242;-54
2021/03/24 04:01:21;;;;;;;59.23;40.33;;;7.20;99.90;;;;;;5000267;28;20245;-51
2021/03/24 04:03:54;;;;;;;60.77;37.70;;;7.30;99.90;;;;;;5011601;28;20260;-53
2021/03/24 04:06:27;;;;;;;64.70;42.50;;;7.40;99.90;;;;;;5008074;28;20629;-54
2021/03/24 04:08:56;;;;;;;51.10;35.00;;;7.40;99.90;;;;;;4991665;28;20412;-52
2021/03/24 04:11:27;;;;;;;61.80;38.30;;;7.50;99.90;;;;;;4991191;28;20241;-53
2021/03/24 04:13:58;;;;;;;65.80;39.37;;;7.50;99.90;;;;;;4991258;28;20242;-50
2021/03/24 04:16:27;;;;;;;59.33;38.33;;;7.60;99.90;;;;;;4995047;28;20654;-51
2021/03/24 04:19:00;;;;;;;60.53;38.87;;;7.60;99.90;;;;;;5009578;28;20233;-54
2021/03/24 04:21:30;;;;;;;61.30;39.10;;;7.50;99.90;;;;;;5007514;28;20725;-51
2021/03/24 04:24:02;;;;;;;60.43;37.53;;;7.60;99.90;;;;;;5002421;28;20233;-52
2021/03/24 04:26:35;;;;;;;66.43;42.17;;;7.60;99.90;;;;;;5006791;28;20752;-53
2021/03/24 04:29:08;;;;;;;56.47;36.90;;;7.60;99.90;;;;;;4991000;28;20303;-54
2021/03/24 04:31:49;;;;;;;65.13;47.03;;;7.70;99.90;;;;;;4989591;28;20967;-50
2021/03/24 04:34:18;;;;;;;54.57;38.40;;;7.70;99.90;;;;;;4991134;28;20614;-54
2021/03/24 04:36:51;;;;;;;62.63;41.77;;;7.60;99.90;;;;;;4996711;28;20256;-54
2021/03/24 04:39:30;;;;;;;60.93;39.47;;;7.60;99.90;;;;;;5010269;28;20245;-52
2021/03/24 04:42:01;;;;;;;60.10;38.73;;;7.70;99.90;;;;;;5009377;28;20590;-52
2021/03/24 04:44:31;;;;;;;69.73;44.27;;;7.60;99.90;;;;;;5018329;28;20229;-50
2021/03/24 04:47:06;;;;;;;61.00;38.80;;;7.60;99.90;;;;;;4995972;28;20229;-51
2021/03/24 04:49:48;;;;;;;60.93;38.73;;;7.50;99.90;;;;;;5012706;28;20233;-52
2021/03/24 04:52:16;;;;;;;64.53;42.10;;;7.60;99.90;;;;;;5028116;28;20731;-53
2021/03/24 04:54:45;;;;;;;66.30;42.80;;;7.70;99.90;;;;;;5029975;28;20232;-52
2021/03/24 04:57:18;;;;;;;68.90;42.77;;;7.60;99.90;;;;;;5013799;28;20628;-53
2021/03/24 04:59:50;;;;;;;70.57;44.97;;;7.40;99.90;;;;;;4989833;28;20601;-52
2021/03/24 05:02:23;;;;;;;67.17;43.27;;;7.10;99.90;;;;;;4990451;28;20333;-51
2021/03/24 05:04:56;;;;;;;70.53;44.97;;;7.10;99.90;;;;;;4990653;28;20237;-51
2021/03/24 05:07:36;;;;;;;69.37;44.40;;;7.00;99.90;;;;;;4990619;28;20249;-54
2021/03/24 05:10:08;;;;;;;70.03;43.23;;;7.00;99.90;;;;;;5009122;28;20275;-53
2021/03/24 05:12:43;;;;;;;73.97;45.27;;;7.10;99.90;;;;;;5008566;28;20291;-55
2021/03/24 05:15:17;;;;;;;71.60;44.63;;;6.90;99.90;;;;;;4992013;28;20269;-52
2021/03/24 05:17:47;;;;;;;75.37;45.87;;;6.80;99.90;;;;;;5008171;28;20244;-52
2021/03/24 05:20:23;;;;;;;72.40;44.73;;;6.80;99.90;;;;;;5008745;28;20238;-55
2021/03/24 05:22:51;;;;;;;75.93;45.50;;;6.70;99.90;;;;;;5010092;28;20653;-51
2021/03/24 05:25:25;;;;;;;75.07;41.67;;;6.70;99.90;;;;;;5009176;28;20252;-51
2021/03/24 05:27:58;;;;;;;71.80;44.17;;;6.70;99.90;;;;;;5009938;28;20291;-54
2021/03/24 05:30:29;;;;;;;67.97;43.17;;;6.70;99.90;;;;;;5008549;28;20422;-51
2021/03/24 05:33:04;;;;;;;65.90;39.37;;;6.60;99.90;;;;;;5009456;28;20229;-50
2021/03/24 05:35:58;;;;;;;69.07;43.77;;;6.70;99.90;;;;;;5007700;28;20236;-53
2021/03/24 05:38:33;;;;;;;74.20;44.17;;;6.60;99.90;;;;;;4991968;28;20238;-50
2021/03/24 05:41:17;;;;;;;71.03;42.83;;;6.70;99.90;;;;;;5002201;28;20241;-53
2021/03/24 05:44:04;;;;;;;67.57;42.90;;;6.60;99.90;;;;;;5012690;28;20274;-51
2021/03/24 05:47:09;;;;;;;66.23;40.50;;;6.60;99.90;;;;;;5014810;28;20513;-52
2021/03/24 05:49:47;;;;;;;69.33;42.13;;;6.70;99.90;;;;;;5009160;28;20229;-52
2021/03/24 05:52:27;;;;;;;64.67;41.93;;;6.70;99.90;;;;;;5007890;28;20764;-51
2021/03/24 05:55:36;;;;;;;71.77;43.67;;;6.80;99.90;;;;;;4999895;28;20247;-54
2021/03/24 05:58:30;;;;;;;64.90;40.53;;;6.80;99.90;;;;;;4974898;28;20308;-52
2021/03/24 06:01:06;;;;;;;67.67;40.43;;;6.70;99.90;;;;;;4980900;28;20772;-52
2021/03/24 06:04:09;;;;;;;67.63;42.17;;;6.70;99.90;;;;;;5000940;28;20303;-52
2021/03/24 06:07:21;;;;;;;70.17;42.50;;;6.80;99.90;;;;;;5001382;28;20600;-52
2021/03/24 06:10:29;;;;;;;74.53;43.47;;;6.80;99.90;;;;;;5002101;28;20731;-51
2021/03/24 06:13:32;;;;;;;72.60;41.30;;;6.70;99.90;;;;;;4986212;28;20804;-54
2021/03/24 06:16:32;;;;;;;74.13;43.50;;;6.70;99.90;;;;;;5003535;28;20241;-55
2021/03/24 06:19:11;;;;;;;71.93;44.07;;;6.80;99.90;;;;;;4998335;28;20316;-51
2021/03/24 06:21:50;;;;;;;73.20;40.10;;;6.70;99.90;;;;;;5003874;28;20235;-53
2021/03/24 06:24:58;;;;;;;81.03;48.43;;;6.90;99.90;;;;;;4996727;28;20240;-52
2021/03/24 06:27:49;;;;;;;77.43;47.80;;;6.80;99.90;;;;;;4969960;28;20324;-53
2021/03/24 06:30:43;;;;;;;79.47;47.80;;;7.00;99.90;;;;;;4978065;28;20250;-54
2021/03/24 06:33:49;;;;;;;81.83;46.73;;;6.90;99.90;;;;;;4968512;28;20253;-53
2021/03/24 06:36:52;;;;;;;80.03;47.47;;;6.90;99.90;;;;;;4986435;28;20968;-54
2021/03/24 06:39:51;;;;;;;82.30;49.23;;;7.00;99.90;;;;;;4988277;28;20267;-53
2021/03/24 06:42:33;;;;;;;80.30;46.30;;;7.00;99.90;;;;;;4967192;28;20626;-51
2021/03/24 06:45:29;;;;;;;79.77;48.53;;;7.10;99.90;;;;;;4961959;28;20338;-52
2021/03/24 06:48:06;;;;;;;81.80;45.40;;;7.10;99.90;;;;;;4976414;28;20329;-54
2021/03/24 06:51:36;;;;;;;81.50;46.90;;;7.10;99.90;;;;;;4975152;28;20248;-51
2021/03/24 06:54:28;;;;;;;82.70;45.90;;;7.10;99.90;;;;;;4981426;28;20233;-53
2021/03/24 06:57:56;;;;;;;83.83;48.80;;;7.30;99.90;;;;;;4966844;28;20295;-54
2021/03/24 07:00:55;;;;;;;82.00;49.23;;;7.30;99.90;;;;;;4977904;28;20308;-50
2021/03/24 07:04:01;;;;;;;85.63;49.83;;;7.20;99.90;;;;;;4970916;28;20245;-55
2021/03/24 07:06:53;;;;;;;82.13;49.93;;;7.20;99.90;;;;;;4982216;28;20225;-52
2021/03/24 07:09:34;;;;;;;82.63;48.97;;;7.20;99.90;;;;;;4980392;28;20258;-52
2021/03/24 07:12:13;;;;;;;76.83;47.33;;;7.30;99.90;;;;;;4982872;28;20691;-53
2021/03/24 07:15:23;;;;;;;70.17;42.63;;;7.30;99.90;;;;;;4994421;28;20236;-56
2021/03/24 07:18:35;;;;;;;69.60;43.97;;;7.80;99.90;;;;;;4985291;28;20277;-54
2021/03/24 07:21:39;;;;;;;64.10;42.73;;;9.70;99.90;;;;;;4990715;28;20672;-50
2021/03/24 07:24:34;;;;;;;66.43;43.20;;;10.10;99.90;;;;;;4976612;28;20245;-52
2021/03/24 07:27:27;;;;;;;74.43;47.97;;;9.40;99.90;;;;;;4985764;28;20241;-51
2021/03/24 07:30:14;;;;;;;74.17;47.90;;;8.90;99.90;;;;;;4987363;28;20367;-50
2021/03/24 07:32:49;;;;;;;74.50;47.87;;;8.70;99.90;;;;;;4995469;28;20677;-50
2021/03/24 07:35:35;;;;;;;76.30;48.90;;;8.50;99.90;;;;;;4997630;28;20335;-51
2021/03/24 07:39:03;;;;;;;86.70;51.37;;;8.40;99.90;;;;;;4997822;28;20264;-52
2021/03/24 07:42:29;;;;;;;76.13;44.97;;;8.40;99.90;;;;;;4993464;28;20663;-51
2021/03/24 07:45:40;;;;;;;75.10;46.20;;;8.70;99.90;;;;;;4988012;28;20243;-52
2021/03/24 07:48:50;;;;;;;67.17;44.97;;;9.40;99.90;;;;;;4985830;28;20253;-53
2021/03/24 07:51:45;;;;;;;76.33;49.33;;;9.60;99.90;;;;;;4980434;28;20327;-54
2021/03/24 07:54:19;;;;;;;74.73;48.50;;;9.40;99.90;;;;;;4980167;28;20241;-54
2021/03/24 07:56:59;;;;;;;72.73;48.03;;;9.20;99.90;;;;;;4980537;28;20324;-53
2021/03/24 07:59:39;;;;;;;76.30;49.03;;;8.90;99.90;;;;;;4976043;28;20757;-54
2021/03/24 08:02:30;;;;;;;75.50;48.03;;;8.90;99.90;;;;;;4992641;28;20244;-53
2021/03/24 08:05:22;;;;;;;80.17;51.03;;;8.90;99.90;;;;;;5005037;28;20768;-49
2021/03/24 08:08:03;;;;;;;81.07;50.50;;;8.80;99.90;;;;;;4999921;28;20248;-50
2021/03/24 08:10:37;;;;;;;76.63;49.70;;;8.80;99.90;;;;;;4996319;28;20307;-53
2021/03/24 08:13:51;;;;;;;79.13;48.73;;;8.90;99.90;;;;;;5004309;28;20569;-55
2021/03/24 08:16:35;;;;;;;81.37;50.03;;;9.00;99.90;;;;;;4997611;28;20300;-51
2021/03/24 08:19:41;;;;;;;72.20;47.63;;;9.10;99.90;;;;;;5009646;28;20249;-54
2021/03/24 08:22:31;;;;;;;74.70;50.70;;;9.30;99.90;;;;;;4987503;28;20727;-54
2021/03/24 08:25:15;;;;;;;78.60;50.50;;;9.40;99.90;;;;;;5002309;28;20291;-52
2021/03/24 08:27:51;;;;;;;68.17;44.23;;;9.40;99.90;;;;;;4999357;28;20636;-54
2021/03/24 08:30:25;;;;;;;69.97;47.13;;;9.70;99.90;;;;;;4991627;28;20238;-50
2021/03/24 08:33:31;;;;;;;69.93;47.50;;;10.00;99.90;;;;;;5000267;28;20285;-55
2021/03/24 08:36:10;;;;;;;74.77;49.70;;;10.00;99.90;;;;;;4995512;28;20243;-53
2021/03/24 08:39:24;;;;;;;71.77;49.63;;;10.20;99.90;;;;;;5009334;28;20235;-51
2021/03/24 08:42:21;;;;;;;73.37;49.60;;;10.30;99.90;;;;;;4959002;28;20252;-53
2021/03/24 08:44:55;;;;;;;69.87;49.13;;;10.40;99.90;;;;;;4976852;28;20243;-54
2021/03/24 08:47:26;;;;;;;73.33;49.13;;;10.60;99.90;;;;;;4991210;28;20266;-54
2021/03/24 08:49:57;;;;;;;69.73;47.80;;;10.80;99.90;;;;;;4984946;28;20249;-52
2021/03/24 08:52:37;;;;;;;67.87;48.17;;;11.00;99.90;;;;;;4993784;28;20304;-52
2021/03/24 08:55:30;;;;;;;70.60;49.17;;;11.10;99.90;;;;;;5000704;28;20709;-55
2021/03/24 08:58:22;;;;;;;70.17;49.60;;;11.20;99.90;;;;;;4985911;28;20262;-54
2021/03/24 09:01:35;;;;;;;67.87;48.70;;;11.30;99.90;;;;;;4996443;28;20238;-51
2021/03/24 09:04:49;;;;;;;70.73;48.27;;;11.50;99.90;;;;;;4991106;28;20242;-54
2021/03/24 09:07:33;;;;;;;64.70;46.83;;;11.40;99.90;;;;;;4976587;28;20257;-55
2021/03/24 09:10:19;;;;;;;69.90;47.03;;;11.30;99.90;;;;;;5003508;28;20266;-54
2021/03/24 09:12:52;;;;;;;66.33;47.73;;;11.30;99.90;;;;;;5002228;28;20246;-55
2021/03/24 09:15:27;;;;;;;69.93;49.17;;;11.30;99.90;;;;;;4995548;28;20249;-54
2021/03/24 09:18:09;;;;;;;63.47;47.37;;;11.40;99.90;;;;;;5009458;28;20314;-55
2021/03/24 09:21:02;;;;;;;63.63;46.83;;;11.70;99.90;;;;;;4989200;28;20235;-54
2021/03/24 09:24:13;;;;;;;61.00;42.83;;;12.00;99.90;;;;;;4969600;28;20286;-51
2021/03/24 09:27:22;;;;;;;65.67;47.40;;;12.30;99.90;;;;;;4978087;28;20699;-51
2021/03/24 09:30:59;;;;;;;62.83;44.77;;;12.70;99.90;;;;;;4989173;28;20299;-54
2021/03/24 09:33:52;;;;;;;66.83;48.00;;;13.10;99.90;;;;;;4961156;28;20700;-52
2021/03/24 09:36:45;;;;;;;60.43;44.73;;;13.60;99.90;;;;;;4980784;28;20240;-53
2021/03/24 09:39:21;;;;;;;61.33;46.10;;;13.80;99.90;;;;;;4981530;28;20267;-54
2021/03/24 09:41:56;;;;;;;62.77;48.57;;;13.90;99.90;;;;;;4980751;28;20244;-54
2021/03/24 09:44:35;;;;;;;67.07;48.87;;;13.90;99.90;;;;;;4987205;28;20646;-53
2021/03/24 09:47:17;;;;;;;60.17;46.03;;;14.00;99.90;;;;;;4989602;28;20286;-52
2021/03/24 09:49:54;;;;;;;67.13;47.37;;;14.20;99.90;;;;;;4989024;28;20245;-52
2021/03/24 09:52:31;;;;;;;65.40;49.17;;;14.20;99.90;;;;;;4989655;28;20276;-51
2021/03/24 09:55:25;;;;;;;66.73;49.07;;;14.10;99.90;;;;;;5005710;28;20244;-53
2021/03/24 09:58:38;;;;;;;65.10;49.43;;;13.90;99.90;;;;;;4993459;28;20272;-52
2021/03/24 10:01:35;;;;;;;62.97;48.73;;;13.80;99.90;;;;;;4999022;28;20247;-51
2021/03/24 10:04:17;;;;;;;64.80;47.17;;;13.30;99.90;;;;;;4992319;28;20240;-51
2021/03/24 10:07:00;;;;;;;61.13;45.60;;;13.00;99.90;;;;;;5000406;28;20231;-53
2021/03/24 10:09:36;;;;;;;64.67;49.47;;;12.80;99.90;;;;;;5000251;28;20633;-52
2021/03/24 10:12:17;;;;;;;69.20;50.60;;;12.60;99.90;;;;;;5008483;28;20254;-52
2021/03/24 10:14:54;;;;;;;62.17;45.50;;;12.70;99.90;;;;;;5003844;28;20234;-54
2021/03/24 10:17:25;;;;;;;68.63;49.50;;;12.80;99.90;;;;;;5006507;28;20719;-55
2021/03/24 10:20:07;;;;;;;65.03;47.83;;;12.70;99.90;;;;;;4992964;28;20248;-55
2021/03/24 10:22:40;;;;;;;68.83;50.87;;;12.70;99.90;;;;;;4971591;28;20295;-53
2021/03/24 10:25:15;;;;;;;67.67;49.50;;;13.00;99.90;;;;;;4969609;28;20328;-54
2021/03/24 10:27:47;;;;;;;62.07;45.83;;;13.20;99.90;;;;;;4969599;28;20323;-53
2021/03/24 10:30:34;;;;;;;61.70;47.47;;;13.30;99.90;;;;;;4972738;28;20294;-51
2021/03/24 10:33:09;;;;;;;58.87;46.00;;;13.40;99.90;;;;;;5002586;28;20331;-51
2021/03/24 10:35:42;;;;;;;62.83;44.93;;;13.50;99.90;;;;;;5004894;28;20618;-52
2021/03/24 10:38:26;;;;;;;53.97;43.27;;;13.80;99.90;;;;;;4993024;28;20236;-51
2021/03/24 10:41:22;;;;;;;51.27;39.90;;;13.90;99.90;;;;;;4988120;28;20244;-52
2021/03/24 10:43:55;;;;;;;52.60;39.23;;;14.00;99.90;;;;;;4988656;28;20688;-55
2021/03/24 10:46:32;;;;;;;46.37;36.30;;;14.20;99.90;;;;;;4988815;28;20240;-53
2021/03/24 10:49:02;;;;;;;50.80;38.77;;;14.80;99.90;;;;;;4971784;28;20229;-55
2021/03/24 10:51:47;;;;;;;49.73;39.03;;;15.20;99.90;;;;;;4968556;28;20242;-56
2021/03/24 10:54:20;;;;;;;50.43;38.77;;;15.50;99.90;;;;;;4986040;28;20244;-56
2021/03/24 10:57:07;;;;;;;47.80;38.80;;;15.60;99.90;;;;;;4980258;28;20259;-55
2021/03/24 10:59:39;;;;;;;50.47;38.37;;;15.80;99.90;;;;;;5001114;28;20309;-53
2021/03/24 11:02:21;;;;;;;40.70;31.90;;;16.10;99.90;;;;;;4997998;28;20270;-55
2021/03/24 11:04:56;;;;;;;49.67;39.13;;;17.20;99.90;;;;;;5004388;28;20237;-55
2021/03/24 11:07:32;;;;;;;46.60;39.77;;;16.90;99.90;;;;;;4998465;28;20229;-53
2021/03/24 11:10:27;;;;;;;45.20;37.63;;;16.60;99.90;;;;;;5002831;28;20244;-51
2021/03/24 11:13:02;;;;;;;49.33;40.93;;;16.20;99.90;;;;;;4987034;28;20242;-52
2021/03/24 11:15:50;;;;;;;52.07;42.07;;;16.30;99.90;;;;;;4968195;28;20597;-53
2021/03/24 11:18:24;;;;;;;51.83;42.63;;;16.20;99.90;;;;;;4977441;28;20437;-55
2021/03/24 11:20:55;;;;;;;53.67;42.37;;;15.80;99.90;;;;;;4986103;28;20248;-52
2021/03/24 11:23:38;;;;;;;56.60;44.03;;;15.60;99.90;;;;;;4988321;28;20272;-56
2021/03/24 11:26:41;;;;;;;55.13;43.73;;;15.90;99.90;;;;;;4998263;28;20458;-55
2021/03/24 11:29:14;;;;;;;51.67;42.77;;;16.00;99.90;;;;;;4994146;28;20635;-53
2021/03/24 11:32:01;;;;;;;55.50;43.27;;;16.00;99.90;;;;;;5011120;28;20288;-55
2021/03/24 11:34:40;;;;;;;54.20;42.00;;;15.90;99.90;;;;;;4986157;28;20237;-54
2021/03/24 11:37:30;;;;;;;55.03;42.73;;;15.90;99.90;;;;;;4976089;28;20269;-55
2021/03/24 11:40:09;;;;;;;58.77;44.23;;;16.20;99.90;;;;;;4969127;28;20757;-55
2021/03/24 11:42:37;;;;;;;56.40;45.40;;;16.70;99.90;;;;;;4973255;28;20276;-55
2021/03/24 11:45:12;;;;;;;51.10;40.67;;;16.40;99.90;;;;;;4968273;28;20248;-56
2021/03/24 11:48:07;;;;;;;55.30;43.67;;;16.60;99.90;;;;;;4973552;28;20321;-52
2021/03/24 11:50:42;;;;;;;58.67;43.43;;;16.70;99.90;;;;;;4999467;28;20229;-56
2021/03/24 11:53:16;;;;;;;56.57;43.73;;;16.40;99.90;;;;;;5005288;28;20240;-51
2021/03/24 11:55:55;;;;;;;53.23;41.23;;;16.50;99.90;;;;;;4994370;28;20238;-52
2021/03/24 11:58:49;;;;;;;57.93;44.47;;;16.40;99.90;;;;;;4987720;28;20296;-51
2021/03/24 12:01:42;;;;;;;55.90;44.10;;;16.30;99.90;;;;;;4990376;28;20230;-53
2021/03/24 12:04:35;;;;;;;57.90;46.33;;;16.00;99.90;;;;;;5006176;28;20241;-51
2021/03/24 12:07:14;;;;;;;62.50;46.67;;;15.80;99.90;;;;;;5005348;28;20256;-55
2021/03/24 12:09:42;;;;;;;60.10;45.37;;;15.90;99.90;;;;;;5006480;28;20332;-51
2021/03/24 12:12:19;;;;;;;56.27;44.10;;;15.80;99.90;;;;;;5007355;28;20261;-53
2021/03/24 12:15:04;;;;;;;61.17;45.80;;;15.70;99.90;;;;;;5005512;28;20261;-52
2021/03/24 12:17:36;;;;;;;58.97;44.90;;;15.60;99.90;;;;;;4987354;28;20238;-55
2021/03/24 12:20:10;;;;;;;55.53;45.10;;;15.10;99.90;;;;;;4990922;28;20245;-54
2021/03/24 12:22:38;;;;;;;57.63;44.83;;;15.00;99.90;;;;;;4999886;28;20267;-50
2021/03/24 12:25:16;;;;;;;58.57;45.37;;;14.90;99.90;;;;;;5000792;28;20233;-54
2021/03/24 12:27:46;;;;;;;58.53;45.07;;;15.00;99.90;;;;;;5009333;28;20335;-53
2021/03/24 12:30:29;;;;;;;55.53;44.67;;;15.00;99.90;;;;;;5008105;28;20621;-54
2021/03/24 12:33:22;;;;;;;59.47;45.30;;;15.20;99.90;;;;;;5022731;28;20260;-56
2021/03/24 12:36:05;;;;;;;56.33;42.70;;;15.10;99.90;;;;;;5006149;28;20283;-54
2021/03/24 12:38:47;;;;;;;52.50;40.87;;;14.90;99.90;;;;;;5008748;28;20291;-52
2021/03/24 12:41:25;;;;;;;57.80;42.60;;;15.00;99.90;;;;;;5006492;28;20771;-51
2021/03/24 12:43:52;;;;;;;53.43;42.17;;;15.00;99.90;;;;;;4990989;28;20266;-54
2021/03/24 12:46:22;;;;;;;54.63;42.47;;;15.00;99.90;;;;;;4991045;28;20259;-53
2021/03/24 12:48:54;;;;;;;53.27;42.00;;;15.00;99.90;;;;;;4994274;28;20237;-52
2021/03/24 12:51:26;;;;;;;54.60;42.83;;;15.30;99.90;;;;;;5009553;28;20591;-52
2021/03/24 12:53:57;;;;;;;55.83;42.33;;;15.20;99.90;;;;;;5007847;28;20260;-55
2021/03/24 12:57:15;;;;;;;51.43;41.63;;;15.20;99.90;;;;;;5001144;28;20256;-55
2021/03/24 13:00:01;;;;;;;54.57;42.00;;;15.30;99.90;;;;;;4979840;28;20231;-52
2021/03/24 13:03:13;;;;;;;54.83;42.07;;;15.00;99.90;;;;;;4997546;28;20359;-55
2021/03/24 13:05:50;;;;;;;56.03;40.23;;;14.90;99.90;;;;;;4968959;28;20272;-55
2021/03/24 13:08:32;;;;;;;56.07;41.13;;;14.90;99.90;;;;;;4967771;28;20773;-54
2021/03/24 13:11:19;;;;;;;55.97;40.63;;;14.80;99.90;;;;;;4980332;28;20815;-55
2021/03/24 13:14:04;;;;;;;55.17;41.87;;;14.90;99.90;;;;;;4998720;28;20237;-55
2021/03/24 13:16:41;;;;;;;52.17;38.27;;;14.90;99.90;;;;;;4998323;28;20700;-53
2021/03/24 13:19:20;;;;;;;62.43;43.23;;;15.10;99.90;;;;;;4998410;28;20264;-56
2021/03/24 13:22:02;;;;;;;55.40;42.13;;;15.00;99.90;;;;;;4981245;28;20248;-55
2021/03/24 13:24:56;;;;;;;55.33;41.77;;;15.10;99.90;;;;;;4971269;28;20279;-53
2021/03/24 13:27:47;;;;;;;55.47;40.77;;;15.00;99.90;;;;;;4984107;28;20320;-54
2021/03/24 13:30:23;;;;;;;51.57;39.10;;;15.00;99.90;;;;;;4994816;28;20291;-54
2021/03/24 13:32:57;;;;;;;54.00;40.03;;;15.10;99.90;;;;;;4997733;28;20624;-55
2021/03/24 13:35:38;;;;;;;56.20;40.17;;;15.00;99.90;;;;;;4989484;28;20645;-53
2021/03/24 13:38:22;;;;;;;58.23;40.73;;;14.80;99.90;;;;;;4975271;28;21371;-52
2021/03/24 13:40:54;;;;;;;56.90;41.37;;;14.80;99.90;;;;;;4957127;28;20238;-52